Time;durP1;ratioP1;P1;durP2;ratioP2;P2;SDS_P1;SDS_P2;PMS_P1;PMS_P2;Temp;Humidity;BMP_temperature;BMP_pressure;BME280_temperature;BME280_humidity;BME280_pressure;Samples;Min_cycle;Max_cycle;Signal;HPM_P1;HPM_P2
2022/04/25 00:00:08;;;;;;;;;;;;;;;;;;343467;28;977;-34
2022/04/25 00:00:24;;;;;;;;;;;;;;;;;;343401;28;1915;-32
2022/04/25 00:00:35;;;;;;;;;;;;;;;;;;343280;28;850;-35
2022/04/25 00:00:45;;;;;;;;;;;;;;;;;;343461;28;978;-35
2022/04/25 00:00:56;;;;;;;;;;;;;;;;;;343435;28;804;-36
2022/04/25 00:01:06;;;;;;;;;;;;;;;;;;343214;28;835;-37
2022/04/25 00:01:17;;;;;;;;;;;;;;;;;;343448;28;995;-34
2022/04/25 00:01:27;;;;;;;;;;;;;;;;;;343471;28;955;-31
2022/04/25 00:01:38;;;;;;;;;;;;;;;;;;343170;28;922;-38
2022/04/25 00:01:48;;;;;;;;;;;;;;;;;;343398;28;863;-34
2022/04/25 00:01:59;;;;;;;;;;;;;;;;;;343384;28;1788;-33
2022/04/25 00:02:10;;;;;;;;;;;;;;;;;;343410;28;764;-35
2022/04/25 00:02:20;;;;;;;;;;;;;;;;;;343470;28;943;-37
2022/04/25 00:02:31;;;;;;;;;;;;;;;;;;343040;28;1018;-35
2022/04/25 00:02:41;;;;;;;;;;;;;;;;;;343367;28;970;-35
2022/04/25 00:02:51;;;;;;;;;;;;;;;;;;343517;28;910;-36
2022/04/25 00:03:03;;;;;;;;;;;;;;;;;;343549;28;1047;-35
2022/04/25 00:03:13;;;;;;;;;;;;;;;;;;343435;28;1170;-37
2022/04/25 00:03:23;;;;;;;;;;;;;;;;;;343629;28;892;-38
2022/04/25 00:03:34;;;;;;;;;;;;;;;;;;343244;28;1127;-34
2022/04/25 00:03:44;;;;;;;;;;;;;;;;;;343460;28;822;-33
2022/04/25 00:03:55;;;;;;;;;;;;;;;;;;343400;28;1004;-37
2022/04/25 00:04:05;;;;;;;;;;;;;;;;;;343701;28;800;-31
2022/04/25 00:04:15;;;;;;;;;;;;;;;;;;343564;28;942;-33
2022/04/25 00:04:26;;;;;;;;;;;;;;;;;;343391;28;863;-37
2022/04/25 00:04:36;;;;;;;;;;;;;;;;;;343435;28;934;-34
2022/04/25 00:04:46;;;;;;;;;;;;;;;;;;343461;28;942;-32
2022/04/25 00:04:57;;;;;;;;;;;;;;;;;;343514;28;899;-36
2022/04/25 00:05:07;;;;;;;;;;;;;;;;;;343370;28;1248;-37
2022/04/25 00:05:18;;;;;;;;;;;;;;;;;;343657;28;830;-34
2022/04/25 00:05:28;;;;;;;;;;;;;;;;;;343564;28;1029;-37
2022/04/25 00:05:38;;;;;;;;;;;;;;;;;;343347;28;894;-31
2022/04/25 00:05:49;;;;;;;;;;;;;;;;;;343534;28;1042;-32
2022/04/25 00:05:59;;;;;;;;;;;;;;;;;;343671;28;823;-36
2022/04/25 00:06:09;;;;;;;;;;;;;;;;;;343426;28;922;-36
2022/04/25 00:06:20;;;;;;;;;;;;;;;;;;343498;28;942;-35
2022/04/25 00:06:30;;;;;;;;;;;;;;;;;;343295;28;815;-37
2022/04/25 00:06:41;;;;;;;;;;;;;;;;;;343593;28;914;-32
2022/04/25 00:06:51;;;;;;;;;;;;;;;;;;343524;28;780;-35
2022/04/25 00:07:01;;;;;;;;;;;;;;;;;;343487;28;1013;-36
2022/04/25 00:07:12;;;;;;;;;;;;;;;;;;343571;28;1088;-36
2022/04/25 00:07:22;;;;;;;;;;;;;;;;;;343675;28;807;-36
2022/04/25 00:07:32;;;;;;;;;;;;;;;;;;343301;28;997;-36
2022/04/25 00:07:43;;;;;;;;;;;;;;;;;;343083;28;962;-38
2022/04/25 00:07:53;;;;;;;;;;;;;;;;;;343530;28;886;-35
2022/04/25 00:08:04;;;;;;;;;;;;;;;;;;343620;28;891;-35
2022/04/25 00:08:14;;;;;;;;;;;;;;;;;;343349;28;1066;-31
2022/04/25 00:08:24;;;;;;;;;;;;;;;;;;343672;28;906;-34
2022/04/25 00:08:35;;;;;;;;;;;;;;;;;;343382;28;867;-36
2022/04/25 00:08:45;;;;;;;;;;;;;;;;;;343416;28;954;-34
2022/04/25 00:08:55;;;;;;;;;;;;;;;;;;343373;28;1068;-35
2022/04/25 00:09:06;;;;;;;;;;;;;;;;;;343541;28;934;-36
2022/04/25 00:09:16;;;;;;;;;;;;;;;;;;343582;28;1008;-34
2022/04/25 00:09:26;;;;;;;;;;;;;;;;;;343590;28;839;-34
2022/04/25 00:09:37;;;;;;;;;;;;;;;;;;343346;28;1120;-34
2022/04/25 00:09:47;;;;;;;;;;;;;;;;;;343426;28;946;-35
2022/04/25 00:09:57;;;;;;;;;;;;;;;;;;343598;28;867;-35
2022/04/25 00:10:08;;;;;;;;;;;;;;;;;;343376;28;1025;-36
2022/04/25 00:10:18;;;;;;;;;;;;;;;;;;343567;28;859;-35
2022/04/25 00:10:29;;;;;;;;;;;;;;;;;;343615;28;863;-34
2022/04/25 00:10:39;;;;;;;;;;;;;;;;;;343399;28;864;-35
2022/04/25 00:10:49;;;;;;;;;;;;;;;;;;343218;28;953;-33
2022/04/25 00:10:59;;;;;;;;;;;;;;;;;;343678;28;942;-36
2022/04/25 00:11:10;;;;;;;;;;;;;;;;;;343383;28;1123;-34
2022/04/25 00:11:20;;;;;;;;;;;;;;;;;;343409;28;1109;-37
2022/04/25 00:11:31;;;;;;;;;;;;;;;;;;343002;28;893;-36
2022/04/25 00:11:41;;;;;;;;;;;;;;;;;;343418;28;926;-34
2022/04/25 00:11:51;;;;;;;;;;;;;;;;;;343463;28;851;-36
2022/04/25 00:12:02;;;;;;;;;;;;;;;;;;343360;28;966;-33
2022/04/25 00:12:13;;;;;;;;;;;;;;;;;;343467;28;883;-33
2022/04/25 00:12:23;;;;;;;;;;;;;;;;;;343561;28;953;-36
2022/04/25 00:12:34;;;;;;;;;;;;;;;;;;343138;28;1346;-35
2022/04/25 00:12:44;;;;;;;;;;;;;;;;;;343232;28;1069;-34
2022/04/25 00:12:54;;;;;;;;;;;;;;;;;;343450;28;906;-34
2022/04/25 00:13:05;;;;;;;;;;;;;;;;;;343412;28;883;-37
2022/04/25 00:13:15;;;;;;;;;;;;;;;;;;343548;28;874;-34
2022/04/25 00:13:26;;;;;;;;;;;;;;;;;;343562;28;1156;-34
2022/04/25 00:13:36;;;;;;;;;;;;;;;;;;343451;28;862;-34
2022/04/25 00:13:46;;;;;;;;;;;;;;;;;;343439;28;909;-36
2022/04/25 00:13:57;;;;;;;;;;;;;;;;;;343353;28;1115;-34
2022/04/25 00:14:07;;;;;;;;;;;;;;;;;;343551;28;910;-35
2022/04/25 00:14:18;;;;;;;;;;;;;;;;;;343650;28;820;-35
2022/04/25 00:14:28;;;;;;;;;;;;;;;;;;343497;28;918;-38
2022/04/25 00:14:38;;;;;;;;;;;;;;;;;;343293;28;982;-35
2022/04/25 00:14:48;;;;;;;;;;;;;;;;;;343562;28;802;-33
2022/04/25 00:14:59;;;;;;;;;;;;;;;;;;343472;28;843;-33
2022/04/25 00:15:10;;;;;;;;;;;;;;;;;;343205;28;909;-34
2022/04/25 00:15:21;;;;;;;;;;;;;;;;;;343536;28;962;-32
2022/04/25 00:15:32;;;;;;;;;;;;;;;;;;343365;28;811;-33
2022/04/25 00:15:42;;;;;;;;;;;;;;;;;;343492;28;790;-32
2022/04/25 00:15:54;;;;;;;;;;;;;;;;;;343337;28;1147;-35
2022/04/25 00:16:04;;;;;;;;;;;;;;;;;;343670;28;804;-34
2022/04/25 00:16:15;;;;;;;;;;;;;;;;;;343512;28;942;-36
2022/04/25 00:16:25;;;;;;;;;;;;;;;;;;343588;28;886;-36
2022/04/25 00:16:35;;;;;;;;;;;;;;;;;;343140;28;1016;-32
2022/04/25 00:16:46;;;;;;;;;;;;;;;;;;343557;28;807;-32
2022/04/25 00:16:56;;;;;;;;;;;;;;;;;;343573;28;1012;-35
2022/04/25 00:17:06;;;;;;;;;;;;;;;;;;343521;28;930;-34
2022/04/25 00:17:17;;;;;;;;;;;;;;;;;;343651;28;957;-34
2022/04/25 00:17:28;;;;;;;;;;;;;;;;;;343515;28;914;-32
2022/04/25 00:17:38;;;;;;;;;;;;;;;;;;343406;28;835;-35
2022/04/25 00:17:48;;;;;;;;;;;;;;;;;;343236;28;986;-36
2022/04/25 00:17:59;;;;;;;;;;;;;;;;;;343625;28;913;-32
2022/04/25 00:18:09;;;;;;;;;;;;;;;;;;343370;28;953;-38
2022/04/25 00:18:20;;;;;;;;;;;;;;;;;;343485;28;1048;-35
2022/04/25 00:18:30;;;;;;;;;;;;;;;;;;343204;28;983;-36
2022/04/25 00:18:40;;;;;;;;;;;;;;;;;;343680;28;815;-33
2022/04/25 00:18:51;;;;;;;;;;;;;;;;;;343507;28;796;-35
2022/04/25 00:19:01;;;;;;;;;;;;;;;;;;343441;28;883;-36
2022/04/25 00:19:11;;;;;;;;;;;;;;;;;;343374;28;961;-38
2022/04/25 00:19:22;;;;;;;;;;;;;;;;;;343581;28;819;-36
2022/04/25 00:19:33;;;;;;;;;;;;;;;;;;343267;28;795;-36
2022/04/25 00:19:43;;;;;;;;;;;;;;;;;;343513;28;981;-33
2022/04/25 00:19:53;;;;;;;;;;;;;;;;;;343499;28;792;-34
2022/04/25 00:20:04;;;;;;;;;;;;;;;;;;343589;28;937;-37
2022/04/25 00:20:15;;;;;;;;;;;;;;;;;;343409;28;1020;-36
2022/04/25 00:20:25;;;;;;;;;;;;;;;;;;343427;28;1969;-37
2022/04/25 00:20:36;;;;;;;;;;;;;;;;;;343360;28;934;-33
2022/04/25 00:20:46;;;;;;;;;;;;;;;;;;343292;28;891;-35
2022/04/25 00:20:56;;;;;;;;;;;;;;;;;;343423;28;1033;-37
2022/04/25 00:21:07;;;;;;;;;;;;;;;;;;343519;28;894;-33
2022/04/25 00:21:17;;;;;;;;;;;;;;;;;;343683;28;946;-35
2022/04/25 00:21:27;;;;;;;;;;;;;;;;;;343393;28;961;-36
2022/04/25 00:21:38;;;;;;;;;;;;;;;;;;343306;28;1429;-35
2022/04/25 00:21:48;;;;;;;;;;;;;;;;;;343472;28;950;-33
2022/04/25 00:21:58;;;;;;;;;;;;;;;;;;343524;28;826;-36
2022/04/25 00:22:09;;;;;;;;;;;;;;;;;;343431;28;946;-34
2022/04/25 00:22:19;;;;;;;;;;;;;;;;;;343567;28;1114;-32
2022/04/25 00:22:29;;;;;;;;;;;;;;;;;;343349;28;1009;-34
2022/04/25 00:22:40;;;;;;;;;;;;;;;;;;343409;28;818;-35
2022/04/25 00:22:50;;;;;;;;;;;;;;;;;;343343;28;1028;-36
2022/04/25 00:23:04;;;;;;;;;;;;;;;;;;343530;28;926;-32
2022/04/25 00:23:14;;;;;;;;;;;;;;;;;;343496;28;799;-35
2022/04/25 00:23:24;;;;;;;;;;;;;;;;;;343637;28;835;-32
2022/04/25 00:23:35;;;;;;;;;;;;;;;;;;343068;28;1014;-36
2022/04/25 00:23:45;;;;;;;;;;;;;;;;;;343667;28;826;-34
2022/04/25 00:23:55;;;;;;;;;;;;;;;;;;343495;28;878;-33
2022/04/25 00:24:06;;;;;;;;;;;;;;;;;;343524;28;1092;-34
2022/04/25 00:24:16;;;;;;;;;;;;;;;;;;343608;28;938;-35
2022/04/25 00:24:27;;;;;;;;;;;;;;;;;;343586;28;996;-36
2022/04/25 00:24:38;;;;;;;;;;;;;;;;;;343146;28;1688;-34
2022/04/25 00:24:48;;;;;;;;;;;;;;;;;;343310;28;1496;-33
2022/04/25 00:24:58;;;;;;;;;;;;;;;;;;343610;28;950;-35
2022/04/25 00:25:09;;;;;;;;;;;;;;;;;;343560;28;979;-36
2022/04/25 00:25:19;;;;;;;;;;;;;;;;;;343502;28;961;-33
2022/04/25 00:25:33;;;;;;;;;;;;;;;;;;343414;28;973;-34
2022/04/25 00:25:43;;;;;;;;;;;;;;;;;;343703;28;874;-35
2022/04/25 00:25:53;;;;;;;;;;;;;;;;;;343404;28;934;-34
2022/04/25 00:26:04;;;;;;;;;;;;;;;;;;343439;28;990;-35
2022/04/25 00:26:14;;;;;;;;;;;;;;;;;;343578;28;551;-32
2022/04/25 00:26:25;;;;;;;;;;;;;;;;;;343600;28;863;-33
2022/04/25 00:26:35;;;;;;;;;;;;;;;;;;343086;28;820;-31
2022/04/25 00:26:46;;;;;;;;;;;;;;;;;;343389;28;1089;-34
2022/04/25 00:26:56;;;;;;;;;;;;;;;;;;342138;28;1160;-36
2022/04/25 00:27:06;;;;;;;;;;;;;;;;;;341949;28;953;-36
2022/04/25 00:27:17;;;;;;;;;;;;;;;;;;342101;28;985;-34
2022/04/25 00:27:28;;;;;;;;;;;;;;;;;;340648;28;1228;-34
2022/04/25 00:27:39;;;;;;;;;;;;;;;;;;340626;29;942;-34
2022/04/25 00:27:49;;;;;;;;;;;;;;;;;;340723;29;798;-36
2022/04/25 00:28:00;;;;;;;;;;;;;;;;;;340728;29;996;-34
2022/04/25 00:28:10;;;;;;;;;;;;;;;;;;340663;29;878;-32
2022/04/25 00:28:21;;;;;;;;;;;;;;;;;;340883;28;930;-34
2022/04/25 00:28:31;;;;;;;;;;;;;;;;;;341076;28;772;-38
2022/04/25 00:28:42;;;;;;;;;;;;;;;;;;342018;28;994;-35
2022/04/25 00:28:52;;;;;;;;;;;;;;;;;;342714;28;1188;-33
2022/04/25 00:29:02;;;;;;;;;;;;;;;;;;343452;28;1018;-33
2022/04/25 00:29:13;;;;;;;;;;;;;;;;;;343078;28;1106;-33
2022/04/25 00:29:23;;;;;;;;;;;;;;;;;;343540;28;803;-35
2022/04/25 00:29:33;;;;;;;;;;;;;;;;;;343293;28;992;-34
2022/04/25 00:29:44;;;;;;;;;;;;;;;;;;343512;28;921;-35
2022/04/25 00:29:54;;;;;;;;;;;;;;;;;;342965;28;928;-34
2022/04/25 00:30:05;;;;;;;;;;;;;;;;;;343586;28;855;-34
2022/04/25 00:30:15;;;;;;;;;;;;;;;;;;343527;28;1097;-35
2022/04/25 00:30:26;;;;;;;;;;;;;;;;;;343506;28;786;-37
2022/04/25 00:30:36;;;;;;;;;;;;;;;;;;343252;28;975;-36
2022/04/25 00:30:47;;;;;;;;;;;;;;;;;;343457;28;1048;-33
2022/04/25 00:30:57;;;;;;;;;;;;;;;;;;343504;28;614;-31
2022/04/25 00:31:07;;;;;;;;;;;;;;;;;;343415;28;956;-34
2022/04/25 00:31:18;;;;;;;;;;;;;;;;;;343571;28;819;-37
2022/04/25 00:31:28;;;;;;;;;;;;;;;;;;343404;28;870;-36
2022/04/25 00:31:39;;;;;;;;;;;;;;;;;;343232;28;1696;-33
2022/04/25 00:31:49;;;;;;;;;;;;;;;;;;343245;28;944;-35
2022/04/25 00:31:59;;;;;;;;;;;;;;;;;;343499;28;957;-36
2022/04/25 00:32:09;;;;;;;;;;;;;;;;;;343392;28;885;-35
2022/04/25 00:32:20;;;;;;;;;;;;;;;;;;343508;28;844;-33
2022/04/25 00:32:30;;;;;;;;;;;;;;;;;;343096;28;963;-38
2022/04/25 00:32:40;;;;;;;;;;;;;;;;;;343523;28;1280;-35
2022/04/25 00:32:51;;;;;;;;;;;;;;;;;;343339;28;862;-34
2022/04/25 00:33:01;;;;;;;;;;;;;;;;;;343310;28;986;-35
2022/04/25 00:33:11;;;;;;;;;;;;;;;;;;343340;28;924;-31
2022/04/25 00:33:22;;;;;;;;;;;;;;;;;;343561;28;936;-34
2022/04/25 00:33:32;;;;;;;;;;;;;;;;;;343346;28;949;-33
2022/04/25 00:33:42;;;;;;;;;;;;;;;;;;343353;28;1155;-34
2022/04/25 00:33:53;;;;;;;;;;;;;;;;;;343232;28;993;-35
2022/04/25 00:34:03;;;;;;;;;;;;;;;;;;343467;28;992;-35
2022/04/25 00:34:13;;;;;;;;;;;;;;;;;;343338;28;928;-34
2022/04/25 00:34:24;;;;;;;;;;;;;;;;;;343415;28;1201;-33
2022/04/25 00:34:34;;;;;;;;;;;;;;;;;;343320;28;886;-37
2022/04/25 00:34:45;;;;;;;;;;;;;;;;;;343476;28;929;-36
2022/04/25 00:34:55;;;;;;;;;;;;;;;;;;343176;28;1124;-36
2022/04/25 00:35:06;;;;;;;;;;;;;;;;;;343481;28;961;-36
2022/04/25 00:35:16;;;;;;;;;;;;;;;;;;343468;28;875;-34
2022/04/25 00:35:27;;;;;;;;;;;;;;;;;;343425;28;1009;-36
2022/04/25 00:35:38;;;;;;;;;;;;;;;;;;343258;28;1039;-30
2022/04/25 00:35:48;;;;;;;;;;;;;;;;;;343572;28;858;-35
2022/04/25 00:35:58;;;;;;;;;;;;;;;;;;343506;28;1024;-34
2022/04/25 00:36:08;;;;;;;;;;;;;;;;;;343468;28;1016;-38
2022/04/25 00:36:19;;;;;;;;;;;;;;;;;;343474;28;1139;-35
2022/04/25 00:36:29;;;;;;;;;;;;;;;;;;343524;28;959;-32
2022/04/25 00:36:39;;;;;;;;;;;;;;;;;;343329;28;992;-35
2022/04/25 00:36:50;;;;;;;;;;;;;;;;;;343352;28;976;-36
2022/04/25 00:37:00;;;;;;;;;;;;;;;;;;343483;28;1200;-33
2022/04/25 00:37:10;;;;;;;;;;;;;;;;;;343322;28;925;-36
2022/04/25 00:37:21;;;;;;;;;;;;;;;;;;343417;28;906;-33
2022/04/25 00:37:31;;;;;;;;;;;;;;;;;;343164;28;1319;-34
2022/04/25 00:37:41;;;;;;;;;;;;;;;;;;343628;28;1792;-34
2022/04/25 00:37:52;;;;;;;;;;;;;;;;;;343306;28;902;-37
2022/04/25 00:38:02;;;;;;;;;;;;;;;;;;343515;28;933;-32
2022/04/25 00:38:13;;;;;;;;;;;;;;;;;;343354;28;1073;-33
2022/04/25 00:38:23;;;;;;;;;;;;;;;;;;343672;28;970;-32
2022/04/25 00:38:33;;;;;;;;;;;;;;;;;;343341;28;938;-34
2022/04/25 00:38:44;;;;;;;;;;;;;;;;;;343586;28;1065;-36
2022/04/25 00:38:54;;;;;;;;;;;;;;;;;;343621;28;1064;-34
2022/04/25 00:39:04;;;;;;;;;;;;;;;;;;343601;28;985;-35
2022/04/25 00:39:14;;;;;;;;;;;;;;;;;;343382;28;874;-33
2022/04/25 00:39:25;;;;;;;;;;;;;;;;;;343520;28;943;-34
2022/04/25 00:39:35;;;;;;;;;;;;;;;;;;343364;28;823;-35
2022/04/25 00:39:45;;;;;;;;;;;;;;;;;;343517;28;810;-37
2022/04/25 00:39:56;;;;;;;;;;;;;;;;;;343551;28;867;-35
2022/04/25 00:40:06;;;;;;;;;;;;;;;;;;343411;28;987;-35
2022/04/25 00:40:21;;;;;;;;;;;;;;;;;;343566;28;943;-37
2022/04/25 00:40:31;;;;;;;;;;;;;;;;;;343270;28;918;-37
2022/04/25 00:40:42;;;;;;;;;;;;;;;;;;343463;28;957;-33
2022/04/25 00:40:52;;;;;;;;;;;;;;;;;;343453;28;1629;-33
2022/04/25 00:41:05;;;;;;;;;;;;;;;;;;343641;28;834;-30
2022/04/25 00:41:15;;;;;;;;;;;;;;;;;;343428;28;937;-32
2022/04/25 00:41:26;;;;;;;;;;;;;;;;;;343539;28;930;-34
2022/04/25 00:41:37;;;;;;;;;;;;;;;;;;343384;28;937;-36
2022/04/25 00:41:47;;;;;;;;;;;;;;;;;;343421;28;1028;-37
2022/04/25 00:41:58;;;;;;;;;;;;;;;;;;343387;28;930;-32
2022/04/25 00:42:08;;;;;;;;;;;;;;;;;;343529;28;914;-35
2022/04/25 00:42:18;;;;;;;;;;;;;;;;;;343636;28;859;-31
2022/04/25 00:42:29;;;;;;;;;;;;;;;;;;343348;28;897;-34
2022/04/25 00:42:39;;;;;;;;;;;;;;;;;;343253;28;982;-35
2022/04/25 00:42:50;;;;;;;;;;;;;;;;;;343611;28;776;-35
2022/04/25 00:43:00;;;;;;;;;;;;;;;;;;343370;28;795;-38
2022/04/25 00:43:10;;;;;;;;;;;;;;;;;;343306;28;1008;-36
2022/04/25 00:43:21;;;;;;;;;;;;;;;;;;343638;28;1020;-36
2022/04/25 00:43:31;;;;;;;;;;;;;;;;;;343221;28;933;-38
2022/04/25 00:43:41;;;;;;;;;;;;;;;;;;343525;28;618;-36
2022/04/25 00:43:55;;;;;;;;;;;;;;;;;;343393;28;989;-35
2022/04/25 00:44:05;;;;;;;;;;;;;;;;;;343621;28;950;-34
2022/04/25 00:44:16;;;;;;;;;;;;;;;;;;343557;28;866;-30
2022/04/25 00:44:26;;;;;;;;;;;;;;;;;;343362;28;1125;-33
2022/04/25 00:44:37;;;;;;;;;;;;;;;;;;343184;28;902;-36
2022/04/25 00:44:47;;;;;;;;;;;;;;;;;;343453;28;879;-40
2022/04/25 00:44:59;;;;;;;;;;;;;;;;;;343484;28;898;-32
2022/04/25 00:45:11;;;;;;;;;;;;;;;;;;343420;28;957;-36
2022/04/25 00:45:21;;;;;;;;;;;;;;;;;;343657;28;784;-36
2022/04/25 00:45:35;;;;;;;;;;;;;;;;;;343169;28;855;-33
2022/04/25 00:45:45;;;;;;;;;;;;;;;;;;343420;28;1009;-35
2022/04/25 00:45:55;;;;;;;;;;;;;;;;;;343457;28;799;-34
2022/04/25 00:46:06;;;;;;;;;;;;;;;;;;343555;28;922;-37
2022/04/25 00:46:20;;;;;;;;;;;;;;;;;;343552;28;934;-33
2022/04/25 00:46:30;;;;;;;;;;;;;;;;;;343165;28;1034;-33
2022/04/25 00:46:41;;;;;;;;;;;;;;;;;;343477;28;930;-36
2022/04/25 00:46:55;;;;;;;;;;;;;;;;;;343456;28;929;-31
2022/04/25 00:47:06;;;;;;;;;;;;;;;;;;343425;28;1081;-35
2022/04/25 00:47:18;;;;;;;;;;;;;;;;;;343456;28;937;-33
2022/04/25 00:47:29;;;;;;;;;;;;;;;;;;343371;28;993;-37
2022/04/25 00:47:39;;;;;;;;;;;;;;;;;;343133;28;962;-31
2022/04/25 00:47:50;;;;;;;;;;;;;;;;;;343514;28;831;-37
2022/04/25 00:48:00;;;;;;;;;;;;;;;;;;342106;28;652;-35
2022/04/25 00:48:11;;;;;;;;;;;;;;;;;;342065;28;954;-37
2022/04/25 00:48:21;;;;;;;;;;;;;;;;;;341899;28;992;-33
2022/04/25 00:48:31;;;;;;;;;;;;;;;;;;341872;28;846;-35
2022/04/25 00:48:42;;;;;;;;;;;;;;;;;;341965;28;874;-38
2022/04/25 00:48:52;;;;;;;;;;;;;;;;;;342101;28;791;-34
2022/04/25 00:49:03;;;;;;;;;;;;;;;;;;341964;28;974;-35
2022/04/25 00:49:14;;;;;;;;;;;;;;;;;;342844;28;855;-36
2022/04/25 00:49:25;;;;;;;;;;;;;;;;;;343433;28;890;-33
2022/04/25 00:49:35;;;;;;;;;;;;;;;;;;343092;28;931;-33
2022/04/25 00:49:46;;;;;;;;;;;;;;;;;;343351;28;910;-36
2022/04/25 00:49:56;;;;;;;;;;;;;;;;;;343439;28;934;-35
2022/04/25 00:50:07;;;;;;;;;;;;;;;;;;343484;28;997;-36
2022/04/25 00:50:17;;;;;;;;;;;;;;;;;;343431;28;946;-33
2022/04/25 00:50:28;;;;;;;;;;;;;;;;;;343454;28;894;-36
2022/04/25 00:50:39;;;;;;;;;;;;;;;;;;343165;28;696;-34
2022/04/25 00:50:49;;;;;;;;;;;;;;;;;;343280;28;1168;-36
2022/04/25 00:50:59;;;;;;;;;;;;;;;;;;343240;28;839;-35
2022/04/25 00:51:11;;;;;;;;;;;;;;;;;;343433;28;906;-35
2022/04/25 00:51:21;;;;;;;;;;;;;;;;;;343443;28;847;-32
2022/04/25 00:51:32;;;;;;;;;;;;;;;;;;343236;28;928;-35
2022/04/25 00:51:42;;;;;;;;;;;;;;;;;;343457;28;926;-36
2022/04/25 00:51:52;;;;;;;;;;;;;;;;;;343385;28;851;-33
2022/04/25 00:52:03;;;;;;;;;;;;;;;;;;343074;28;851;-37
2022/04/25 00:52:13;;;;;;;;;;;;;;;;;;343211;28;1083;-34
2022/04/25 00:52:24;;;;;;;;;;;;;;;;;;343476;28;910;-33
2022/04/25 00:52:35;;;;;;;;;;;;;;;;;;343117;28;1118;-36
2022/04/25 00:52:45;;;;;;;;;;;;;;;;;;343277;28;1103;-34
2022/04/25 00:52:55;;;;;;;;;;;;;;;;;;343488;28;965;-38
2022/04/25 00:53:06;;;;;;;;;;;;;;;;;;343338;28;843;-32
2022/04/25 00:53:16;;;;;;;;;;;;;;;;;;343468;28;895;-34
2022/04/25 00:53:27;;;;;;;;;;;;;;;;;;341945;28;945;-34
2022/04/25 00:53:37;;;;;;;;;;;;;;;;;;341901;28;934;-33
2022/04/25 00:53:48;;;;;;;;;;;;;;;;;;342034;28;846;-40
2022/04/25 00:53:58;;;;;;;;;;;;;;;;;;341978;28;922;-35
2022/04/25 00:54:09;;;;;;;;;;;;;;;;;;342627;28;1045;-35
2022/04/25 00:54:21;;;;;;;;;;;;;;;;;;343567;28;870;-32
2022/04/25 00:54:32;;;;;;;;;;;;;;;;;;343055;28;839;-38
2022/04/25 00:54:42;;;;;;;;;;;;;;;;;;343322;28;1006;-35
2022/04/25 00:54:52;;;;;;;;;;;;;;;;;;343410;28;807;-34
2022/04/25 00:55:06;;;;;;;;;;;;;;;;;;343267;28;1005;-33
2022/04/25 00:55:16;;;;;;;;;;;;;;;;;;343383;28;950;-33
2022/04/25 00:55:26;;;;;;;;;;;;;;;;;;343491;28;882;-34
2022/04/25 00:55:37;;;;;;;;;;;;;;;;;;343349;28;930;-35
2022/04/25 00:55:48;;;;;;;;;;;;;;;;;;343464;28;843;-35
2022/04/25 00:55:59;;;;;;;;;;;;;;;;;;343435;28;1183;-35
2022/04/25 00:56:10;;;;;;;;;;;;;;;;;;343358;28;895;-32
2022/04/25 00:56:21;;;;;;;;;;;;;;;;;;343448;28;922;-34
2022/04/25 00:56:31;;;;;;;;;;;;;;;;;;342927;28;1125;-33
2022/04/25 00:56:42;;;;;;;;;;;;;;;;;;343492;28;961;-33
2022/04/25 00:56:52;;;;;;;;;;;;;;;;;;343433;28;740;-33
2022/04/25 00:57:02;;;;;;;;;;;;;;;;;;343290;28;764;-36
2022/04/25 00:57:13;;;;;;;;;;;;;;;;;;343312;28;1103;-34
2022/04/25 00:57:24;;;;;;;;;;;;;;;;;;343520;28;926;-31
2022/04/25 00:57:34;;;;;;;;;;;;;;;;;;343126;28;977;-35
2022/04/25 00:57:45;;;;;;;;;;;;;;;;;;343318;28;803;-36
2022/04/25 00:57:56;;;;;;;;;;;;;;;;;;343264;28;921;-33
2022/04/25 00:58:07;;;;;;;;;;;;;;;;;;343400;28;890;-38
2022/04/25 00:58:18;;;;;;;;;;;;;;;;;;343624;28;958;-37
2022/04/25 00:58:28;;;;;;;;;;;;;;;;;;343397;28;1546;-36
2022/04/25 00:58:38;;;;;;;;;;;;;;;;;;343415;28;906;-34
2022/04/25 00:58:49;;;;;;;;;;;;;;;;;;343381;28;1353;-37
2022/04/25 00:59:00;;;;;;;;;;;;;;;;;;343426;28;890;-34
2022/04/25 00:59:10;;;;;;;;;;;;;;;;;;343346;28;1175;-36
2022/04/25 00:59:21;;;;;;;;;;;;;;;;;;343408;28;966;-38
2022/04/25 00:59:32;;;;;;;;;;;;;;;;;;342805;28;811;-35
2022/04/25 00:59:43;;;;;;;;;;;;;;;;;;343211;28;1137;-34
2022/04/25 00:59:56;;;;;;;;;;;;;;;;;;343346;28;799;-33
2022/04/25 01:00:10;;;;;;;;;;;;;;;;;;343399;28;874;-33
2022/04/25 01:00:21;;;;;;;;;;;;;;;;;;343310;28;1985;-34
2022/04/25 01:00:32;;;;;;;;;;;;;;;;;;343247;28;811;-35
2022/04/25 01:00:43;;;;;;;;;;;;;;;;;;343616;28;796;-33
2022/04/25 01:00:53;;;;;;;;;;;;;;;;;;343514;28;894;-36
2022/04/25 01:01:04;;;;;;;;;;;;;;;;;;343372;28;1096;-39
2022/04/25 01:01:14;;;;;;;;;;;;;;;;;;343554;28;847;-34
2022/04/25 01:01:24;;;;;;;;;;;;;;;;;;343499;28;890;-34
2022/04/25 01:01:35;;;;;;;;;;;;;;;;;;343095;28;807;-36
2022/04/25 01:01:45;;;;;;;;;;;;;;;;;;343438;28;967;-35
2022/04/25 01:01:56;;;;;;;;;;;;;;;;;;343530;28;910;-34
2022/04/25 01:02:06;;;;;;;;;;;;;;;;;;343400;28;902;-34
2022/04/25 01:02:16;;;;;;;;;;;;;;;;;;343393;28;1077;-35
2022/04/25 01:02:27;;;;;;;;;;;;;;;;;;343513;28;993;-35
2022/04/25 01:02:38;;;;;;;;;;;;;;;;;;343225;28;1142;-37
2022/04/25 01:02:48;;;;;;;;;;;;;;;;;;343615;28;898;-34
2022/04/25 01:02:59;;;;;;;;;;;;;;;;;;343323;28;1055;-33
2022/04/25 01:03:09;;;;;;;;;;;;;;;;;;343520;28;842;-37
2022/04/25 01:03:19;;;;;;;;;;;;;;;;;;343596;28;977;-35
2022/04/25 01:03:30;;;;;;;;;;;;;;;;;;343501;28;850;-34
2022/04/25 01:03:41;;;;;;;;;;;;;;;;;;343528;28;1017;-33
2022/04/25 01:03:51;;;;;;;;;;;;;;;;;;343523;28;871;-34
2022/04/25 01:04:02;;;;;;;;;;;;;;;;;;343584;28;858;-34
2022/04/25 01:04:12;;;;;;;;;;;;;;;;;;343177;28;1056;-35
2022/04/25 01:04:22;;;;;;;;;;;;;;;;;;343527;28;879;-35
2022/04/25 01:04:32;;;;;;;;;;;;;;;;;;343275;28;843;-33
2022/04/25 01:04:43;;;;;;;;;;;;;;;;;;343583;28;835;-34
2022/04/25 01:04:54;;;;;;;;;;;;;;;;;;343438;28;1041;-35
2022/04/25 01:05:05;;;;;;;;;;;;;;;;;;343594;28;1247;-36
2022/04/25 01:05:15;;;;;;;;;;;;;;;;;;343506;28;843;-37
2022/04/25 01:05:26;;;;;;;;;;;;;;;;;;343443;28;943;-35
2022/04/25 01:05:36;;;;;;;;;;;;;;;;;;343288;28;918;-34
2022/04/25 01:05:47;;;;;;;;;;;;;;;;;;343502;28;863;-35
2022/04/25 01:05:57;;;;;;;;;;;;;;;;;;343523;28;839;-33
2022/04/25 01:06:07;;;;;;;;;;;;;;;;;;343447;28;1115;-32
2022/04/25 01:06:17;;;;;;;;;;;;;;;;;;343385;28;883;-35
2022/04/25 01:06:28;;;;;;;;;;;;;;;;;;343450;28;929;-37
2022/04/25 01:06:38;;;;;;;;;;;;;;;;;;341750;28;998;-34
2022/04/25 01:06:48;;;;;;;;;;;;;;;;;;341714;28;1204;-36
2022/04/25 01:06:59;;;;;;;;;;;;;;;;;;341887;28;910;-36
2022/04/25 01:07:09;;;;;;;;;;;;;;;;;;341941;28;945;-35
2022/04/25 01:07:20;;;;;;;;;;;;;;;;;;341938;28;965;-32
2022/04/25 01:07:31;;;;;;;;;;;;;;;;;;341823;28;1009;-34
2022/04/25 01:07:41;;;;;;;;;;;;;;;;;;342102;28;938;-34
2022/04/25 01:07:52;;;;;;;;;;;;;;;;;;341919;28;902;-35
2022/04/25 01:08:02;;;;;;;;;;;;;;;;;;342055;28;969;-33
2022/04/25 01:08:12;;;;;;;;;;;;;;;;;;342487;28;1029;-35
2022/04/25 01:08:23;;;;;;;;;;;;;;;;;;343368;28;1001;-34
2022/04/25 01:08:34;;;;;;;;;;;;;;;;;;343166;28;914;-35
2022/04/25 01:08:45;;;;;;;;;;;;;;;;;;343495;28;1197;-36
2022/04/25 01:08:55;;;;;;;;;;;;;;;;;;343557;28;1005;-33
2022/04/25 01:09:06;;;;;;;;;;;;;;;;;;343486;28;1006;-33
2022/04/25 01:09:16;;;;;;;;;;;;;;;;;;343211;28;973;-39
2022/04/25 01:09:26;;;;;;;;;;;;;;;;;;343499;28;942;-35
2022/04/25 01:09:37;;;;;;;;;;;;;;;;;;343269;28;882;-36
2022/04/25 01:09:47;;;;;;;;;;;;;;;;;;343480;28;989;-36
2022/04/25 01:09:58;;;;;;;;;;;;;;;;;;343294;28;949;-34
2022/04/25 01:10:09;;;;;;;;;;;;;;;;;;343574;28;792;-36
2022/04/25 01:10:19;;;;;;;;;;;;;;;;;;343540;28;883;-31
2022/04/25 01:10:30;;;;;;;;;;;;;;;;;;343335;28;954;-33
2022/04/25 01:10:40;;;;;;;;;;;;;;;;;;343503;28;1030;-32
2022/04/25 01:10:50;;;;;;;;;;;;;;;;;;343265;28;1005;-37
2022/04/25 01:11:02;;;;;;;;;;;;;;;;;;343564;28;898;-33
2022/04/25 01:11:13;;;;;;;;;;;;;;;;;;343328;28;881;-32
2022/04/25 01:11:24;;;;;;;;;;;;;;;;;;343646;28;831;-34
2022/04/25 01:11:34;;;;;;;;;;;;;;;;;;343110;28;855;-37
2022/04/25 01:11:45;;;;;;;;;;;;;;;;;;343570;28;775;-36
2022/04/25 01:11:58;;;;;;;;;;;;;;;;;;343382;28;1383;-35
2022/04/25 01:12:08;;;;;;;;;;;;;;;;;;343510;28;929;-35
2022/04/25 01:12:19;;;;;;;;;;;;;;;;;;343416;28;1137;-34
2022/04/25 01:12:29;;;;;;;;;;;;;;;;;;343398;28;878;-37
2022/04/25 01:12:39;;;;;;;;;;;;;;;;;;343383;28;859;-36
2022/04/25 01:12:50;;;;;;;;;;;;;;;;;;343519;28;937;-35
2022/04/25 01:13:00;;;;;;;;;;;;;;;;;;343428;28;973;-34
2022/04/25 01:13:11;;;;;;;;;;;;;;;;;;343390;28;973;-35
2022/04/25 01:13:21;;;;;;;;;;;;;;;;;;343584;28;909;-32
2022/04/25 01:13:32;;;;;;;;;;;;;;;;;;343064;28;977;-33
2022/04/25 01:13:43;;;;;;;;;;;;;;;;;;343308;28;959;-32
2022/04/25 01:13:53;;;;;;;;;;;;;;;;;;343352;28;994;-37
2022/04/25 01:14:29;;;;;;;;;;;;;;;;;;343470;28;847;-33
2022/04/25 01:14:40;;;;;;;;;;;;;;;;;;340304;28;1729;-32
2022/04/25 01:15:00;;;;;;;;;;;;;;;;;;343235;28;878;-34
2022/04/25 01:15:11;;;;;;;;;;;;;;;;;;343285;28;938;-36
2022/04/25 01:15:22;;;;;;;;;;;;;;;;;;343406;28;981;-34
2022/04/25 01:15:34;;;;;;;;;;;;;;;;;;343168;28;831;-36
2022/04/25 01:15:44;;;;;;;;;;;;;;;;;;343452;28;1708;-34
2022/04/25 01:15:54;;;;;;;;;;;;;;;;;;343510;28;816;-37
2022/04/25 01:16:05;;;;;;;;;;;;;;;;;;343517;28;870;-35
2022/04/25 01:16:15;;;;;;;;;;;;;;;;;;343295;28;961;-33
2022/04/25 01:16:25;;;;;;;;;;;;;;;;;;343646;28;969;-33